sensor_id;sensor_type;location;lat;lon;timestamp;P1;durP1;ratioP1;P2;durP2;ratioP2
52984;SDS011;40499;47.830;19.026;2022-11-15T00:00:15;20.55;;;12.38;;
52984;SDS011;40499;47.830;19.026;2022-11-15T00:02:40;21.85;;;12.10;;
52984;SDS011;40499;47.830;19.026;2022-11-15T00:05:06;23.50;;;12.40;;
52984;SDS011;40499;47.830;19.026;2022-11-15T00:07:31;24.25;;;13.05;;
52984;SDS011;40499;47.830;19.026;2022-11-15T00:09:56;24.17;;;12.27;;
52984;SDS011;40499;47.830;19.026;2022-11-15T00:12:22;19.58;;;11.85;;
52984;SDS011;40499;47.830;19.026;2022-11-15T00:14:47;25.35;;;12.40;;
52984;SDS011;40499;47.830;19.026;2022-11-15T00:17:12;22.02;;;12.27;;
52984;SDS011;40499;47.830;19.026;2022-11-15T00:19:37;22.40;;;12.27;;
52984;SDS011;40499;47.830;19.026;2022-11-15T00:22:02;21.70;;;11.55;;
52984;SDS011;40499;47.830;19.026;2022-11-15T00:24:28;22.80;;;12.75;;
52984;SDS011;40499;47.830;19.026;2022-11-15T00:26:53;25.48;;;13.05;;
52984;SDS011;40499;47.830;19.026;2022-11-15T00:29:18;27.60;;;14.60;;
52984;SDS011;40499;47.830;19.026;2022-11-15T00:32:02;32.10;;;15.80;;
52984;SDS011;40499;47.830;19.026;2022-11-15T00:34:27;47.28;;;17.98;;
52984;SDS011;40499;47.830;19.026;2022-11-15T00:36:53;35.97;;;14.88;;
52984;SDS011;40499;47.830;19.026;2022-11-15T00:39:18;28.65;;;14.98;;
52984;SDS011;40499;47.830;19.026;2022-11-15T00:41:43;32.70;;;15.73;;
52984;SDS011;40499;47.830;19.026;2022-11-15T00:44:08;27.08;;;14.20;;
52984;SDS011;40499;47.830;19.026;2022-11-15T00:46:34;25.90;;;14.30;;
52984;SDS011;40499;47.830;19.026;2022-11-15T00:48:59;27.02;;;14.10;;
52984;SDS011;40499;47.830;19.026;2022-11-15T00:51:24;25.77;;;13.07;;
52984;SDS011;40499;47.830;19.026;2022-11-15T00:53:49;28.75;;;13.60;;
52984;SDS011;40499;47.830;19.026;2022-11-15T00:56:15;27.25;;;13.25;;
52984;SDS011;40499;47.830;19.026;2022-11-15T00:58:40;27.45;;;13.32;;
52984;SDS011;40499;47.830;19.026;2022-11-15T01:01:09;28.67;;;13.98;;
52984;SDS011;40499;47.830;19.026;2022-11-15T01:03:35;21.50;;;12.55;;
52984;SDS011;40499;47.830;19.026;2022-11-15T01:06:01;25.02;;;12.95;;
52984;SDS011;40499;47.830;19.026;2022-11-15T01:08:26;24.90;;;13.05;;
52984;SDS011;40499;47.830;19.026;2022-11-15T01:10:51;27.30;;;12.57;;
52984;SDS011;40499;47.830;19.026;2022-11-15T01:13:18;22.67;;;13.27;;
52984;SDS011;40499;47.830;19.026;2022-11-15T01:15:43;22.50;;;12.67;;
52984;SDS011;40499;47.830;19.026;2022-11-15T01:18:09;23.05;;;12.82;;
52984;SDS011;40499;47.830;19.026;2022-11-15T01:20:34;23.00;;;12.60;;
52984;SDS011;40499;47.830;19.026;2022-11-15T01:23:03;28.98;;;13.90;;
52984;SDS011;40499;47.830;19.026;2022-11-15T01:25:28;26.40;;;14.07;;
52984;SDS011;40499;47.830;19.026;2022-11-15T01:27:54;27.40;;;13.60;;
52984;SDS011;40499;47.830;19.026;2022-11-15T01:30:19;26.27;;;13.68;;
52984;SDS011;40499;47.830;19.026;2022-11-15T01:32:45;26.37;;;13.10;;
52984;SDS011;40499;47.830;19.026;2022-11-15T01:35:10;28.47;;;13.90;;
52984;SDS011;40499;47.830;19.026;2022-11-15T01:37:35;32.13;;;15.27;;
52984;SDS011;40499;47.830;19.026;2022-11-15T01:40:00;27.73;;;14.27;;
52984;SDS011;40499;47.830;19.026;2022-11-15T01:42:25;25.13;;;14.48;;
52984;SDS011;40499;47.830;19.026;2022-11-15T01:44:51;28.30;;;14.17;;
52984;SDS011;40499;47.830;19.026;2022-11-15T01:47:21;25.85;;;13.63;;
52984;SDS011;40499;47.830;19.026;2022-11-15T01:50:09;26.02;;;13.05;;
52984;SDS011;40499;47.830;19.026;2022-11-15T01:52:35;27.98;;;14.23;;
52984;SDS011;40499;47.830;19.026;2022-11-15T01:55:03;31.83;;;15.52;;
52984;SDS011;40499;47.830;19.026;2022-11-15T01:57:30;31.63;;;15.13;;
52984;SDS011;40499;47.830;19.026;2022-11-15T01:59:55;25.02;;;13.80;;
52984;SDS011;40499;47.830;19.026;2022-11-15T02:02:22;34.63;;;14.75;;
52984;SDS011;40499;47.830;19.026;2022-11-15T02:04:47;29.55;;;15.20;;
52984;SDS011;40499;47.830;19.026;2022-11-15T02:07:17;30.00;;;15.98;;
52984;SDS011;40499;47.830;19.026;2022-11-15T02:09:43;27.73;;;14.55;;
52984;SDS011;40499;47.830;19.026;2022-11-15T02:12:09;25.45;;;13.43;;
52984;SDS011;40499;47.830;19.026;2022-11-15T02:14:35;25.42;;;13.40;;
52984;SDS011;40499;47.830;19.026;2022-11-15T02:32:09;30.20;;;14.77;;
52984;SDS011;40499;47.830;19.026;2022-11-15T02:37:09;30.52;;;14.95;;
52984;SDS011;40499;47.830;19.026;2022-11-15T02:39:46;29.08;;;14.70;;
52984;SDS011;40499;47.830;19.026;2022-11-15T02:42:14;26.13;;;14.80;;
52984;SDS011;40499;47.830;19.026;2022-11-15T02:45:00;25.15;;;14.07;;
52984;SDS011;40499;47.830;19.026;2022-11-15T02:47:28;26.70;;;13.70;;
52984;SDS011;40499;47.830;19.026;2022-11-15T02:49:57;28.67;;;15.60;;
52984;SDS011;40499;47.830;19.026;2022-11-15T02:52:23;32.63;;;15.90;;
52984;SDS011;40499;47.830;19.026;2022-11-15T02:54:57;30.05;;;14.93;;
52984;SDS011;40499;47.830;19.026;2022-11-15T03:02:29;27.47;;;14.83;;
52984;SDS011;40499;47.830;19.026;2022-11-15T03:05:02;28.00;;;14.98;;
52984;SDS011;40499;47.830;19.026;2022-11-15T03:07:30;28.20;;;15.82;;
52984;SDS011;40499;47.830;19.026;2022-11-15T03:13:33;34.03;;;16.10;;
52984;SDS011;40499;47.830;19.026;2022-11-15T03:15:31;26.15;;;14.45;;
52984;SDS011;40499;47.830;19.026;2022-11-15T03:18:00;30.27;;;14.20;;
52984;SDS011;40499;47.830;19.026;2022-11-15T03:20:27;24.75;;;13.57;;
52984;SDS011;40499;47.830;19.026;2022-11-15T03:22:53;24.92;;;13.38;;
52984;SDS011;40499;47.830;19.026;2022-11-15T03:25:20;24.55;;;14.18;;
52984;SDS011;40499;47.830;19.026;2022-11-15T03:27:48;34.53;;;15.57;;
52984;SDS011;40499;47.830;19.026;2022-11-15T03:30:15;26.00;;;13.63;;
52984;SDS011;40499;47.830;19.026;2022-11-15T03:32:44;28.73;;;14.15;;
52984;SDS011;40499;47.830;19.026;2022-11-15T03:35:12;27.38;;;13.57;;
52984;SDS011;40499;47.830;19.026;2022-11-15T03:40:07;28.23;;;15.25;;
52984;SDS011;40499;47.830;19.026;2022-11-15T03:45:14;27.50;;;14.25;;
52984;SDS011;40499;47.830;19.026;2022-11-15T03:47:45;26.67;;;14.75;;
52984;SDS011;40499;47.830;19.026;2022-11-15T03:50:14;27.92;;;15.52;;
52984;SDS011;40499;47.830;19.026;2022-11-15T03:52:41;24.92;;;13.55;;
52984;SDS011;40499;47.830;19.026;2022-11-15T03:55:08;24.60;;;13.65;;
52984;SDS011;40499;47.830;19.026;2022-11-15T03:57:34;27.70;;;15.15;;
52984;SDS011;40499;47.830;19.026;2022-11-15T03:59:59;30.30;;;14.90;;
52984;SDS011;40499;47.830;19.026;2022-11-15T04:02:24;25.88;;;14.50;;
52984;SDS011;40499;47.830;19.026;2022-11-15T04:04:49;27.77;;;15.57;;
52984;SDS011;40499;47.830;19.026;2022-11-15T04:07:14;27.57;;;14.83;;
52984;SDS011;40499;47.830;19.026;2022-11-15T04:09:40;28.80;;;15.40;;
52984;SDS011;40499;47.830;19.026;2022-11-15T04:12:24;27.88;;;13.93;;
52984;SDS011;40499;47.830;19.026;2022-11-15T04:14:56;30.75;;;15.18;;
52984;SDS011;40499;47.830;19.026;2022-11-15T04:17:46;27.42;;;14.38;;
52984;SDS011;40499;47.830;19.026;2022-11-15T04:20:13;26.95;;;14.90;;
52984;SDS011;40499;47.830;19.026;2022-11-15T04:25:41;27.85;;;13.50;;
52984;SDS011;40499;47.830;19.026;2022-11-15T04:28:07;28.83;;;14.82;;
52984;SDS011;40499;47.830;19.026;2022-11-15T04:30:32;27.75;;;13.82;;
52984;SDS011;40499;47.830;19.026;2022-11-15T04:32:57;26.43;;;15.27;;
52984;SDS011;40499;47.830;19.026;2022-11-15T04:35:23;27.17;;;15.27;;
52984;SDS011;40499;47.830;19.026;2022-11-15T04:37:48;29.85;;;16.15;;
52984;SDS011;40499;47.830;19.026;2022-11-15T04:40:14;30.20;;;15.60;;
52984;SDS011;40499;47.830;19.026;2022-11-15T04:42:40;27.52;;;15.50;;
52984;SDS011;40499;47.830;19.026;2022-11-15T04:45:06;24.58;;;14.63;;
52984;SDS011;40499;47.830;19.026;2022-11-15T04:47:31;28.70;;;14.95;;
52984;SDS011;40499;47.830;19.026;2022-11-15T04:49:57;26.58;;;15.05;;
52984;SDS011;40499;47.830;19.026;2022-11-15T04:52:22;28.97;;;13.97;;
52984;SDS011;40499;47.830;19.026;2022-11-15T04:54:47;25.63;;;14.20;;
52984;SDS011;40499;47.830;19.026;2022-11-15T04:57:12;26.95;;;13.93;;
52984;SDS011;40499;47.830;19.026;2022-11-15T04:59:38;26.17;;;14.77;;
52984;SDS011;40499;47.830;19.026;2022-11-15T05:02:04;28.08;;;14.85;;
52984;SDS011;40499;47.830;19.026;2022-11-15T05:04:29;24.27;;;14.07;;
52984;SDS011;40499;47.830;19.026;2022-11-15T05:06:54;26.57;;;13.97;;
52984;SDS011;40499;47.830;19.026;2022-11-15T05:09:19;25.83;;;14.90;;
52984;SDS011;40499;47.830;19.026;2022-11-15T05:11:45;27.90;;;14.43;;
52984;SDS011;40499;47.830;19.026;2022-11-15T05:14:10;22.90;;;13.18;;
52984;SDS011;40499;47.830;19.026;2022-11-15T05:16:36;31.80;;;18.23;;
52984;SDS011;40499;47.830;19.026;2022-11-15T05:19:01;28.90;;;16.15;;
52984;SDS011;40499;47.830;19.026;2022-11-15T05:21:26;31.93;;;15.70;;
52984;SDS011;40499;47.830;19.026;2022-11-15T05:23:51;26.33;;;13.68;;
52984;SDS011;40499;47.830;19.026;2022-11-15T05:26:17;30.05;;;15.10;;
52984;SDS011;40499;47.830;19.026;2022-11-15T05:28:43;25.60;;;14.52;;
52984;SDS011;40499;47.830;19.026;2022-11-15T05:31:10;28.95;;;14.57;;
52984;SDS011;40499;47.830;19.026;2022-11-15T05:33:35;23.48;;;14.07;;
52984;SDS011;40499;47.830;19.026;2022-11-15T05:36:07;25.25;;;14.48;;
52984;SDS011;40499;47.830;19.026;2022-11-15T05:38:40;24.83;;;14.82;;
52984;SDS011;40499;47.830;19.026;2022-11-15T05:41:08;31.35;;;15.32;;
52984;SDS011;40499;47.830;19.026;2022-11-15T05:43:38;29.75;;;14.68;;
52984;SDS011;40499;47.830;19.026;2022-11-15T05:46:04;28.48;;;15.35;;
52984;SDS011;40499;47.830;19.026;2022-11-15T05:48:31;26.60;;;13.48;;
52984;SDS011;40499;47.830;19.026;2022-11-15T05:51:02;26.35;;;13.90;;
52984;SDS011;40499;47.830;19.026;2022-11-15T05:53:29;26.77;;;14.65;;
52984;SDS011;40499;47.830;19.026;2022-11-15T05:56:24;26.60;;;13.65;;
52984;SDS011;40499;47.830;19.026;2022-11-15T05:59:11;23.52;;;13.55;;
52984;SDS011;40499;47.830;19.026;2022-11-15T06:01:42;26.55;;;15.15;;
52984;SDS011;40499;47.830;19.026;2022-11-15T06:04:07;25.98;;;13.88;;
52984;SDS011;40499;47.830;19.026;2022-11-15T06:06:32;27.13;;;14.40;;
52984;SDS011;40499;47.830;19.026;2022-11-15T06:08:58;25.97;;;14.93;;
52984;SDS011;40499;47.830;19.026;2022-11-15T06:11:25;25.63;;;14.05;;
52984;SDS011;40499;47.830;19.026;2022-11-15T06:13:52;24.65;;;14.15;;
52984;SDS011;40499;47.830;19.026;2022-11-15T06:16:17;25.52;;;14.07;;
52984;SDS011;40499;47.830;19.026;2022-11-15T06:18:44;28.52;;;15.75;;
52984;SDS011;40499;47.830;19.026;2022-11-15T06:21:10;25.10;;;13.02;;
52984;SDS011;40499;47.830;19.026;2022-11-15T06:23:35;23.50;;;12.87;;
52984;SDS011;40499;47.830;19.026;2022-11-15T06:26:20;22.08;;;12.93;;
52984;SDS011;40499;47.830;19.026;2022-11-15T06:28:47;26.33;;;14.40;;
52984;SDS011;40499;47.830;19.026;2022-11-15T06:31:14;25.03;;;14.23;;
52984;SDS011;40499;47.830;19.026;2022-11-15T06:33:43;23.65;;;15.02;;
52984;SDS011;40499;47.830;19.026;2022-11-15T06:36:16;30.55;;;17.80;;
52984;SDS011;40499;47.830;19.026;2022-11-15T06:38:45;28.02;;;14.98;;
52984;SDS011;40499;47.830;19.026;2022-11-15T06:41:14;23.83;;;14.18;;
52984;SDS011;40499;47.830;19.026;2022-11-15T06:43:41;27.45;;;15.18;;
52984;SDS011;40499;47.830;19.026;2022-11-15T06:46:07;30.55;;;14.88;;
52984;SDS011;40499;47.830;19.026;2022-11-15T06:48:32;27.70;;;15.05;;
52984;SDS011;40499;47.830;19.026;2022-11-15T06:51:00;26.05;;;14.52;;
52984;SDS011;40499;47.830;19.026;2022-11-15T06:53:26;24.25;;;14.80;;
52984;SDS011;40499;47.830;19.026;2022-11-15T06:55:53;24.77;;;14.93;;
52984;SDS011;40499;47.830;19.026;2022-11-15T06:58:18;28.20;;;15.05;;
52984;SDS011;40499;47.830;19.026;2022-11-15T07:00:43;26.45;;;15.20;;
52984;SDS011;40499;47.830;19.026;2022-11-15T07:03:09;27.63;;;14.43;;
52984;SDS011;40499;47.830;19.026;2022-11-15T07:05:34;28.85;;;14.27;;
52984;SDS011;40499;47.830;19.026;2022-11-15T07:07:59;24.60;;;14.23;;
52984;SDS011;40499;47.830;19.026;2022-11-15T07:10:25;27.30;;;15.30;;
52984;SDS011;40499;47.830;19.026;2022-11-15T07:12:51;26.17;;;13.88;;
52984;SDS011;40499;47.830;19.026;2022-11-15T07:15:16;23.70;;;13.48;;
52984;SDS011;40499;47.830;19.026;2022-11-15T07:17:42;24.25;;;13.45;;
52984;SDS011;40499;47.830;19.026;2022-11-15T07:20:07;26.38;;;14.27;;
52984;SDS011;40499;47.830;19.026;2022-11-15T07:22:32;22.88;;;13.82;;
52984;SDS011;40499;47.830;19.026;2022-11-15T07:24:58;24.48;;;13.70;;
52984;SDS011;40499;47.830;19.026;2022-11-15T07:27:23;23.88;;;13.98;;
52984;SDS011;40499;47.830;19.026;2022-11-15T07:29:48;21.67;;;13.10;;
52984;SDS011;40499;47.830;19.026;2022-11-15T07:32:13;22.13;;;13.57;;
52984;SDS011;40499;47.830;19.026;2022-11-15T07:34:39;22.98;;;13.75;;
52984;SDS011;40499;47.830;19.026;2022-11-15T07:37:04;22.85;;;13.20;;
52984;SDS011;40499;47.830;19.026;2022-11-15T07:39:29;26.70;;;15.27;;
52984;SDS011;40499;47.830;19.026;2022-11-15T07:41:54;26.23;;;14.40;;
52984;SDS011;40499;47.830;19.026;2022-11-15T07:44:39;24.58;;;15.15;;
52984;SDS011;40499;47.830;19.026;2022-11-15T07:47:05;28.60;;;15.73;;
52984;SDS011;40499;47.830;19.026;2022-11-15T07:49:30;30.40;;;15.95;;
52984;SDS011;40499;47.830;19.026;2022-11-15T07:51:55;26.87;;;14.33;;
52984;SDS011;40499;47.830;19.026;2022-11-15T07:54:20;26.40;;;15.53;;
52984;SDS011;40499;47.830;19.026;2022-11-15T07:56:46;25.95;;;14.98;;
52984;SDS011;40499;47.830;19.026;2022-11-15T07:59:11;24.03;;;14.10;;
52984;SDS011;40499;47.830;19.026;2022-11-15T08:01:36;26.88;;;14.07;;
52984;SDS011;40499;47.830;19.026;2022-11-15T08:04:01;25.53;;;13.43;;
52984;SDS011;40499;47.830;19.026;2022-11-15T08:06:26;22.80;;;13.33;;
52984;SDS011;40499;47.830;19.026;2022-11-15T08:08:52;22.83;;;12.80;;
52984;SDS011;40499;47.830;19.026;2022-11-15T08:11:17;23.00;;;13.20;;
52984;SDS011;40499;47.830;19.026;2022-11-15T08:13:42;24.45;;;13.98;;
52984;SDS011;40499;47.830;19.026;2022-11-15T08:16:08;24.27;;;12.97;;
52984;SDS011;40499;47.830;19.026;2022-11-15T08:18:33;24.38;;;13.43;;
52984;SDS011;40499;47.830;19.026;2022-11-15T08:20:59;23.10;;;13.60;;
52984;SDS011;40499;47.830;19.026;2022-11-15T08:23:24;22.83;;;13.55;;
52984;SDS011;40499;47.830;19.026;2022-11-15T08:25:49;22.67;;;13.33;;
52984;SDS011;40499;47.830;19.026;2022-11-15T08:28:15;22.07;;;13.03;;
52984;SDS011;40499;47.830;19.026;2022-11-15T08:30:41;24.83;;;13.18;;
52984;SDS011;40499;47.830;19.026;2022-11-15T08:33:09;24.77;;;14.00;;
52984;SDS011;40499;47.830;19.026;2022-11-15T08:35:35;25.95;;;14.73;;
52984;SDS011;40499;47.830;19.026;2022-11-15T08:38:00;29.37;;;14.33;;
52984;SDS011;40499;47.830;19.026;2022-11-15T08:40:25;31.20;;;16.73;;
52984;SDS011;40499;47.830;19.026;2022-11-15T08:42:51;35.78;;;18.15;;
52984;SDS011;40499;47.830;19.026;2022-11-15T08:45:17;32.05;;;18.55;;
52984;SDS011;40499;47.830;19.026;2022-11-15T08:47:42;27.20;;;16.33;;
52984;SDS011;40499;47.830;19.026;2022-11-15T08:50:08;28.05;;;16.33;;
52984;SDS011;40499;47.830;19.026;2022-11-15T08:52:33;28.52;;;15.70;;
52984;SDS011;40499;47.830;19.026;2022-11-15T08:54:58;27.08;;;15.45;;
52984;SDS011;40499;47.830;19.026;2022-11-15T08:57:24;25.13;;;15.55;;
52984;SDS011;40499;47.830;19.026;2022-11-15T08:59:49;22.85;;;13.52;;
52984;SDS011;40499;47.830;19.026;2022-11-15T09:02:14;30.90;;;15.35;;
52984;SDS011;40499;47.830;19.026;2022-11-15T09:04:43;28.25;;;15.32;;
52984;SDS011;40499;47.830;19.026;2022-11-15T09:07:09;26.23;;;14.13;;
52984;SDS011;40499;47.830;19.026;2022-11-15T09:09:35;23.38;;;13.88;;
52984;SDS011;40499;47.830;19.026;2022-11-15T09:12:00;25.55;;;14.10;;
52984;SDS011;40499;47.830;19.026;2022-11-15T09:14:25;25.13;;;13.73;;
52984;SDS011;40499;47.830;19.026;2022-11-15T09:16:50;27.63;;;15.38;;
52984;SDS011;40499;47.830;19.026;2022-11-15T09:19:16;25.20;;;14.43;;
52984;SDS011;40499;47.830;19.026;2022-11-15T09:21:41;25.67;;;14.77;;
52984;SDS011;40499;47.830;19.026;2022-11-15T09:24:06;23.25;;;14.77;;
52984;SDS011;40499;47.830;19.026;2022-11-15T09:26:32;25.40;;;14.90;;
52984;SDS011;40499;47.830;19.026;2022-11-15T09:28:58;26.48;;;14.85;;
52984;SDS011;40499;47.830;19.026;2022-11-15T09:31:23;30.63;;;16.08;;
52984;SDS011;40499;47.830;19.026;2022-11-15T09:33:49;28.90;;;14.90;;
52984;SDS011;40499;47.830;19.026;2022-11-15T09:36:14;26.83;;;15.97;;
52984;SDS011;40499;47.830;19.026;2022-11-15T09:38:39;28.40;;;16.05;;
52984;SDS011;40499;47.830;19.026;2022-11-15T09:46:06;30.05;;;16.02;;
52984;SDS011;40499;47.830;19.026;2022-11-15T09:51:32;30.27;;;18.15;;
52984;SDS011;40499;47.830;19.026;2022-11-15T09:54:03;32.83;;;17.42;;
52984;SDS011;40499;47.830;19.026;2022-11-15T09:56:43;30.38;;;18.10;;
52984;SDS011;40499;47.830;19.026;2022-11-15T09:59:31;37.85;;;19.58;;
52984;SDS011;40499;47.830;19.026;2022-11-15T10:04:30;37.47;;;19.42;;
52984;SDS011;40499;47.830;19.026;2022-11-15T10:09:44;34.50;;;19.65;;
52984;SDS011;40499;47.830;19.026;2022-11-15T10:12:13;52.83;;;27.65;;
52984;SDS011;40499;47.830;19.026;2022-11-15T10:14:38;47.55;;;26.13;;
52984;SDS011;40499;47.830;19.026;2022-11-15T10:19:52;36.10;;;21.17;;
52984;SDS011;40499;47.830;19.026;2022-11-15T10:22:25;36.47;;;20.25;;
52984;SDS011;40499;47.830;19.026;2022-11-15T10:24:53;41.15;;;21.05;;
52984;SDS011;40499;47.830;19.026;2022-11-15T10:27:23;36.65;;;20.83;;
52984;SDS011;40499;47.830;19.026;2022-11-15T10:29:49;42.70;;;24.63;;
52984;SDS011;40499;47.830;19.026;2022-11-15T10:32:16;43.25;;;26.17;;
52984;SDS011;40499;47.830;19.026;2022-11-15T10:34:42;45.58;;;23.88;;
52984;SDS011;40499;47.830;19.026;2022-11-15T10:37:07;44.85;;;23.38;;
52984;SDS011;40499;47.830;19.026;2022-11-15T10:39:32;47.60;;;22.70;;
52984;SDS011;40499;47.830;19.026;2022-11-15T10:44:42;44.38;;;24.05;;
52984;SDS011;40499;47.830;19.026;2022-11-15T10:47:24;43.78;;;24.98;;
52984;SDS011;40499;47.830;19.026;2022-11-15T10:50:00;41.75;;;24.25;;
52984;SDS011;40499;47.830;19.026;2022-11-15T10:52:26;41.90;;;23.95;;
52984;SDS011;40499;47.830;19.026;2022-11-15T10:57:30;44.13;;;25.67;;
52984;SDS011;40499;47.830;19.026;2022-11-15T11:02:28;43.27;;;24.80;;
52984;SDS011;40499;47.830;19.026;2022-11-15T11:04:54;46.28;;;28.20;;
52984;SDS011;40499;47.830;19.026;2022-11-15T11:07:20;43.23;;;25.83;;
52984;SDS011;40499;47.830;19.026;2022-11-15T11:09:47;43.33;;;25.00;;
52984;SDS011;40499;47.830;19.026;2022-11-15T11:12:26;45.30;;;24.42;;
52984;SDS011;40499;47.830;19.026;2022-11-15T11:14:51;50.63;;;29.30;;
52984;SDS011;40499;47.830;19.026;2022-11-15T11:17:25;48.17;;;28.83;;
52984;SDS011;40499;47.830;19.026;2022-11-15T11:30:06;44.55;;;24.60;;
52984;SDS011;40499;47.830;19.026;2022-11-15T11:35:19;47.38;;;25.67;;
52984;SDS011;40499;47.830;19.026;2022-11-15T11:37:47;43.70;;;25.95;;
52984;SDS011;40499;47.830;19.026;2022-11-15T11:43:05;44.55;;;26.15;;
52984;SDS011;40499;47.830;19.026;2022-11-15T11:48:20;43.03;;;26.67;;
52984;SDS011;40499;47.830;19.026;2022-11-15T11:51:03;45.85;;;25.48;;
52984;SDS011;40499;47.830;19.026;2022-11-15T11:53:31;43.85;;;26.77;;
52984;SDS011;40499;47.830;19.026;2022-11-15T11:55:58;45.28;;;25.80;;
52984;SDS011;40499;47.830;19.026;2022-11-15T11:58:29;44.45;;;24.95;;
52984;SDS011;40499;47.830;19.026;2022-11-15T12:01:13;45.35;;;26.25;;
52984;SDS011;40499;47.830;19.026;2022-11-15T12:09:07;43.53;;;24.90;;
52984;SDS011;40499;47.830;19.026;2022-11-15T12:14:36;45.65;;;26.55;;
52984;SDS011;40499;47.830;19.026;2022-11-15T12:17:03;42.95;;;25.02;;
52984;SDS011;40499;47.830;19.026;2022-11-15T12:19:29;45.70;;;25.70;;
52984;SDS011;40499;47.830;19.026;2022-11-15T12:21:59;43.08;;;26.13;;
52984;SDS011;40499;47.830;19.026;2022-11-15T12:24:27;47.53;;;26.48;;
52984;SDS011;40499;47.830;19.026;2022-11-15T12:27:09;43.05;;;25.95;;
52984;SDS011;40499;47.830;19.026;2022-11-15T12:29:39;38.78;;;23.48;;
52984;SDS011;40499;47.830;19.026;2022-11-15T12:32:14;41.28;;;25.63;;
52984;SDS011;40499;47.830;19.026;2022-11-15T12:34:43;46.65;;;25.00;;
52984;SDS011;40499;47.830;19.026;2022-11-15T12:42:56;46.38;;;25.98;;
52984;SDS011;40499;47.830;19.026;2022-11-15T12:45:25;46.55;;;25.95;;
52984;SDS011;40499;47.830;19.026;2022-11-15T12:47:51;48.78;;;29.60;;
52984;SDS011;40499;47.830;19.026;2022-11-15T12:50:16;52.45;;;30.48;;
52984;SDS011;40499;47.830;19.026;2022-11-15T12:53:43;53.58;;;29.98;;
52984;SDS011;40499;47.830;19.026;2022-11-15T12:58:51;45.92;;;26.95;;
52984;SDS011;40499;47.830;19.026;2022-11-15T13:06:47;58.05;;;32.25;;
52984;SDS011;40499;47.830;19.026;2022-11-15T13:10:00;61.43;;;33.60;;
52984;SDS011;40499;47.830;19.026;2022-11-15T13:14:43;49.42;;;29.55;;
52984;SDS011;40499;47.830;19.026;2022-11-15T13:22:20;46.80;;;26.92;;
52984;SDS011;40499;47.830;19.026;2022-11-15T13:25:11;42.33;;;24.70;;
52984;SDS011;40499;47.830;19.026;2022-11-15T13:27:40;43.97;;;26.00;;
52984;SDS011;40499;47.830;19.026;2022-11-15T13:30:05;44.53;;;24.88;;
52984;SDS011;40499;47.830;19.026;2022-11-15T13:32:32;43.90;;;24.65;;
52984;SDS011;40499;47.830;19.026;2022-11-15T13:34:57;49.38;;;26.67;;
52984;SDS011;40499;47.830;19.026;2022-11-15T13:39:50;52.28;;;29.40;;
52984;SDS011;40499;47.830;19.026;2022-11-15T13:42:17;48.23;;;28.10;;
52984;SDS011;40499;47.830;19.026;2022-11-15T13:44:55;50.47;;;28.77;;
52984;SDS011;40499;47.830;19.026;2022-11-15T13:47:21;50.25;;;27.67;;
52984;SDS011;40499;47.830;19.026;2022-11-15T13:49:46;53.43;;;30.20;;
52984;SDS011;40499;47.830;19.026;2022-11-15T13:52:12;53.92;;;30.17;;
52984;SDS011;40499;47.830;19.026;2022-11-15T13:57:09;57.17;;;32.20;;
52984;SDS011;40499;47.830;19.026;2022-11-15T13:59:36;56.47;;;32.38;;
52984;SDS011;40499;47.830;19.026;2022-11-15T14:02:09;56.30;;;32.38;;
52984;SDS011;40499;47.830;19.026;2022-11-15T14:04:35;54.28;;;31.20;;
52984;SDS011;40499;47.830;19.026;2022-11-15T14:07:02;55.58;;;30.02;;
52984;SDS011;40499;47.830;19.026;2022-11-15T14:11:57;49.75;;;27.58;;
52984;SDS011;40499;47.830;19.026;2022-11-15T14:14:24;49.47;;;26.98;;
52984;SDS011;40499;47.830;19.026;2022-11-15T14:16:56;51.08;;;27.15;;
52984;SDS011;40499;47.830;19.026;2022-11-15T14:24:34;50.10;;;27.40;;
52984;SDS011;40499;47.830;19.026;2022-11-15T14:29:43;388.05;;;153.35;;
52984;SDS011;40499;47.830;19.026;2022-11-15T14:32:16;231.50;;;100.67;;
52984;SDS011;40499;47.830;19.026;2022-11-15T14:34:41;84.82;;;43.90;;
52984;SDS011;40499;47.830;19.026;2022-11-15T14:37:16;51.50;;;28.90;;
52984;SDS011;40499;47.830;19.026;2022-11-15T14:39:43;51.58;;;31.48;;
52984;SDS011;40499;47.830;19.026;2022-11-15T14:42:09;68.20;;;41.53;;
52984;SDS011;40499;47.830;19.026;2022-11-15T14:44:34;41.65;;;24.60;;
52984;SDS011;40499;47.830;19.026;2022-11-15T14:46:59;41.93;;;23.60;;
52984;SDS011;40499;47.830;19.026;2022-11-15T14:49:25;45.25;;;25.77;;
52984;SDS011;40499;47.830;19.026;2022-11-15T14:51:50;52.33;;;30.77;;
52984;SDS011;40499;47.830;19.026;2022-11-15T14:54:15;48.80;;;27.37;;
52984;SDS011;40499;47.830;19.026;2022-11-15T14:56:40;45.42;;;25.45;;
52984;SDS011;40499;47.830;19.026;2022-11-15T14:59:07;43.78;;;26.90;;
52984;SDS011;40499;47.830;19.026;2022-11-15T15:01:32;51.03;;;26.05;;
52984;SDS011;40499;47.830;19.026;2022-11-15T15:03:58;43.22;;;24.27;;
52984;SDS011;40499;47.830;19.026;2022-11-15T15:06:24;39.80;;;23.33;;
52984;SDS011;40499;47.830;19.026;2022-11-15T15:08:49;43.65;;;23.33;;
52984;SDS011;40499;47.830;19.026;2022-11-15T15:11:25;46.08;;;26.02;;
52984;SDS011;40499;47.830;19.026;2022-11-15T15:13:52;48.25;;;27.80;;
52984;SDS011;40499;47.830;19.026;2022-11-15T15:16:17;51.78;;;28.25;;
52984;SDS011;40499;47.830;19.026;2022-11-15T15:18:43;47.10;;;25.88;;
52984;SDS011;40499;47.830;19.026;2022-11-15T15:21:21;46.75;;;26.67;;
52984;SDS011;40499;47.830;19.026;2022-11-15T15:23:47;43.80;;;24.63;;
52984;SDS011;40499;47.830;19.026;2022-11-15T15:26:13;44.17;;;25.05;;
52984;SDS011;40499;47.830;19.026;2022-11-15T15:28:38;42.57;;;24.70;;
52984;SDS011;40499;47.830;19.026;2022-11-15T15:31:04;45.45;;;26.05;;
52984;SDS011;40499;47.830;19.026;2022-11-15T15:33:29;52.45;;;29.13;;
52984;SDS011;40499;47.830;19.026;2022-11-15T15:35:55;49.60;;;26.98;;
52984;SDS011;40499;47.830;19.026;2022-11-15T15:38:20;51.35;;;28.80;;
52984;SDS011;40499;47.830;19.026;2022-11-15T15:40:46;48.03;;;26.63;;
52984;SDS011;40499;47.830;19.026;2022-11-15T15:43:11;46.20;;;25.45;;
52984;SDS011;40499;47.830;19.026;2022-11-15T15:45:38;44.00;;;25.17;;
52984;SDS011;40499;47.830;19.026;2022-11-15T15:48:04;42.95;;;24.95;;
52984;SDS011;40499;47.830;19.026;2022-11-15T15:50:32;42.55;;;23.10;;
52984;SDS011;40499;47.830;19.026;2022-11-15T15:52:59;42.15;;;23.45;;
52984;SDS011;40499;47.830;19.026;2022-11-15T15:55:25;40.38;;;21.98;;
52984;SDS011;40499;47.830;19.026;2022-11-15T15:57:50;38.13;;;22.42;;
52984;SDS011;40499;47.830;19.026;2022-11-15T16:00:16;42.13;;;23.42;;
52984;SDS011;40499;47.830;19.026;2022-11-15T16:02:41;41.15;;;24.13;;
52984;SDS011;40499;47.830;19.026;2022-11-15T16:05:07;42.63;;;23.80;;
52984;SDS011;40499;47.830;19.026;2022-11-15T16:07:34;51.15;;;28.02;;
52984;SDS011;40499;47.830;19.026;2022-11-15T16:10:00;48.67;;;26.73;;
52984;SDS011;40499;47.830;19.026;2022-11-15T16:12:25;41.40;;;23.90;;